ESGT

Trollhättan-Vänersborg Airport

Trollhättan, Sweden
METAR ESGT 242050Z AUTO 04002G55KT 9999 BKN080/// 03/M00 Q1025
Observed Flight Rules
Sep-24 @ 20:50 UTC (49 minutes ago) Visual Flight Rules
Wind Visibility Clouds
40° at 2 knots
 Gusting to 55 knots
10,000+ meters
  • Broken at 8,000' AGL
Temperatures Readings
Current 3°C / 37°F
Dewpoint 0°C / 32°F
Humidity 81%
Altimeter 30.27" Hg
Pressure 1025 hPa
Elevation 41
METAR ESGT 242050Z AUTO 04002G55KT 9999 BKN080/// 03/M00 Q1025
Observed Flight Rules
Sep-24 @ 20:50 UTC
(49 minutes ago)
VFR
Wind Visibility
40° at 2 knots
 Gusting to 55 knots
10,000+ meters
Clouds
  • Broken at 8,000' AGL
Temperature Dewpoint
3°C / 37°F 0°C / 32°F
Humidity Altimeter Pressure
81% 30.27" Hg 1025 hPa